sensor_id;sensor_type;location;lat;lon;timestamp;P1;durP1;ratioP1;P2;durP2;ratioP2
57331;SDS011;43164;50.908;18.092;2023-07-02T00:00:11;17.70;;;9.80;;
57331;SDS011;43164;50.908;18.092;2023-07-02T00:02:39;19.20;;;10.70;;
57331;SDS011;43164;50.908;18.092;2023-07-02T00:05:07;18.30;;;10.20;;
57331;SDS011;43164;50.908;18.092;2023-07-02T00:07:35;23.10;;;10.30;;
57331;SDS011;43164;50.908;18.092;2023-07-02T00:10:04;17.60;;;9.50;;
57331;SDS011;43164;50.908;18.092;2023-07-02T00:12:32;20.80;;;10.10;;
57331;SDS011;43164;50.908;18.092;2023-07-02T00:15:00;18.80;;;10.30;;
57331;SDS011;43164;50.908;18.092;2023-07-02T00:17:28;23.30;;;10.10;;
57331;SDS011;43164;50.908;18.092;2023-07-02T00:19:56;26.90;;;10.40;;
57331;SDS011;43164;50.908;18.092;2023-07-02T00:22:25;22.40;;;9.90;;
57331;SDS011;43164;50.908;18.092;2023-07-02T00:24:52;19.80;;;10.50;;
57331;SDS011;43164;50.908;18.092;2023-07-02T00:27:21;20.00;;;9.20;;
57331;SDS011;43164;50.908;18.092;2023-07-02T00:29:49;22.70;;;9.40;;
57331;SDS011;43164;50.908;18.092;2023-07-02T00:32:15;21.10;;;9.70;;
57331;SDS011;43164;50.908;18.092;2023-07-02T00:34:43;23.20;;;9.70;;
57331;SDS011;43164;50.908;18.092;2023-07-02T00:37:11;22.70;;;10.30;;
57331;SDS011;43164;50.908;18.092;2023-07-02T00:39:39;17.70;;;9.90;;
57331;SDS011;43164;50.908;18.092;2023-07-02T00:42:07;18.80;;;10.10;;
57331;SDS011;43164;50.908;18.092;2023-07-02T00:44:35;19.70;;;10.90;;
57331;SDS011;43164;50.908;18.092;2023-07-02T00:47:09;19.40;;;10.20;;
57331;SDS011;43164;50.908;18.092;2023-07-02T00:49:36;20.30;;;11.60;;
57331;SDS011;43164;50.908;18.092;2023-07-02T00:52:05;19.70;;;10.40;;
57331;SDS011;43164;50.908;18.092;2023-07-02T00:54:32;24.00;;;10.10;;
57331;SDS011;43164;50.908;18.092;2023-07-02T00:57:00;20.60;;;10.10;;
57331;SDS011;43164;50.908;18.092;2023-07-02T00:59:29;19.30;;;9.70;;
57331;SDS011;43164;50.908;18.092;2023-07-02T01:01:58;21.50;;;9.90;;
57331;SDS011;43164;50.908;18.092;2023-07-02T01:04:26;18.70;;;9.50;;
57331;SDS011;43164;50.908;18.092;2023-07-02T01:06:55;17.50;;;9.50;;
57331;SDS011;43164;50.908;18.092;2023-07-02T01:09:24;16.50;;;9.50;;
57331;SDS011;43164;50.908;18.092;2023-07-02T01:11:54;22.20;;;10.40;;
57331;SDS011;43164;50.908;18.092;2023-07-02T01:14:28;21.00;;;10.20;;
57331;SDS011;43164;50.908;18.092;2023-07-02T01:17:01;17.60;;;9.60;;
57331;SDS011;43164;50.908;18.092;2023-07-02T01:19:49;15.60;;;8.90;;
57331;SDS011;43164;50.908;18.092;2023-07-02T01:22:20;16.00;;;8.10;;
57331;SDS011;43164;50.908;18.092;2023-07-02T01:24:50;17.80;;;9.50;;
57331;SDS011;43164;50.908;18.092;2023-07-02T01:27:18;19.80;;;10.40;;
57331;SDS011;43164;50.908;18.092;2023-07-02T01:29:50;17.70;;;8.70;;
57331;SDS011;43164;50.908;18.092;2023-07-02T01:32:22;19.50;;;8.70;;
57331;SDS011;43164;50.908;18.092;2023-07-02T01:34:50;15.40;;;9.20;;
57331;SDS011;43164;50.908;18.092;2023-07-02T01:37:20;17.50;;;9.60;;
57331;SDS011;43164;50.908;18.092;2023-07-02T01:39:48;22.10;;;9.60;;
57331;SDS011;43164;50.908;18.092;2023-07-02T01:42:16;17.70;;;8.80;;
57331;SDS011;43164;50.908;18.092;2023-07-02T01:44:48;18.50;;;9.20;;
57331;SDS011;43164;50.908;18.092;2023-07-02T01:47:19;17.10;;;8.90;;
57331;SDS011;43164;50.908;18.092;2023-07-02T01:49:53;16.10;;;8.30;;
57331;SDS011;43164;50.908;18.092;2023-07-02T01:52:21;13.60;;;7.90;;
57331;SDS011;43164;50.908;18.092;2023-07-02T01:54:53;14.80;;;8.10;;
57331;SDS011;43164;50.908;18.092;2023-07-02T01:57:22;19.10;;;8.10;;
57331;SDS011;43164;50.908;18.092;2023-07-02T01:59:51;16.70;;;8.30;;
57331;SDS011;43164;50.908;18.092;2023-07-02T02:02:19;12.20;;;7.50;;
57331;SDS011;43164;50.908;18.092;2023-07-02T02:04:55;15.10;;;7.60;;
57331;SDS011;43164;50.908;18.092;2023-07-02T02:07:24;13.10;;;7.20;;
57331;SDS011;43164;50.908;18.092;2023-07-02T02:09:55;14.70;;;7.80;;
57331;SDS011;43164;50.908;18.092;2023-07-02T02:12:24;17.80;;;8.00;;
57331;SDS011;43164;50.908;18.092;2023-07-02T02:14:52;15.50;;;7.10;;
57331;SDS011;43164;50.908;18.092;2023-07-02T02:17:20;14.10;;;6.90;;
57331;SDS011;43164;50.908;18.092;2023-07-02T02:19:51;16.30;;;7.10;;
57331;SDS011;43164;50.908;18.092;2023-07-02T02:22:21;13.40;;;7.30;;
57331;SDS011;43164;50.908;18.092;2023-07-02T02:24:49;13.90;;;7.20;;
57331;SDS011;43164;50.908;18.092;2023-07-02T02:27:18;11.70;;;6.90;;
57331;SDS011;43164;50.908;18.092;2023-07-02T02:29:50;14.20;;;7.00;;
57331;SDS011;43164;50.908;18.092;2023-07-02T02:32:19;11.70;;;6.90;;
57331;SDS011;43164;50.908;18.092;2023-07-02T02:34:48;12.10;;;6.70;;
57331;SDS011;43164;50.908;18.092;2023-07-02T02:37:16;16.00;;;6.60;;
57331;SDS011;43164;50.908;18.092;2023-07-02T02:39:45;13.20;;;7.30;;
57331;SDS011;43164;50.908;18.092;2023-07-02T02:42:13;16.70;;;7.00;;
57331;SDS011;43164;50.908;18.092;2023-07-02T02:44:41;16.00;;;6.60;;
57331;SDS011;43164;50.908;18.092;2023-07-02T02:47:09;13.90;;;6.50;;
57331;SDS011;43164;50.908;18.092;2023-07-02T02:49:38;12.60;;;6.60;;
57331;SDS011;43164;50.908;18.092;2023-07-02T02:52:06;12.90;;;6.80;;
57331;SDS011;43164;50.908;18.092;2023-07-02T02:54:35;13.00;;;6.60;;
57331;SDS011;43164;50.908;18.092;2023-07-02T02:57:03;12.20;;;6.90;;
57331;SDS011;43164;50.908;18.092;2023-07-02T02:59:31;13.90;;;7.00;;
57331;SDS011;43164;50.908;18.092;2023-07-02T03:02:00;10.70;;;5.90;;
57331;SDS011;43164;50.908;18.092;2023-07-02T03:04:28;12.10;;;6.40;;
57331;SDS011;43164;50.908;18.092;2023-07-02T03:06:57;11.90;;;6.80;;
57331;SDS011;43164;50.908;18.092;2023-07-02T03:09:25;12.00;;;6.00;;
57331;SDS011;43164;50.908;18.092;2023-07-02T03:11:54;13.30;;;6.10;;
57331;SDS011;43164;50.908;18.092;2023-07-02T03:14:21;11.30;;;6.30;;
57331;SDS011;43164;50.908;18.092;2023-07-02T03:16:49;11.90;;;6.20;;
57331;SDS011;43164;50.908;18.092;2023-07-02T03:19:16;11.10;;;6.10;;
57331;SDS011;43164;50.908;18.092;2023-07-02T03:21:46;10.00;;;5.60;;
57331;SDS011;43164;50.908;18.092;2023-07-02T03:24:13;11.60;;;5.70;;
57331;SDS011;43164;50.908;18.092;2023-07-02T03:26:42;11.60;;;6.00;;
57331;SDS011;43164;50.908;18.092;2023-07-02T03:29:10;13.80;;;5.50;;
57331;SDS011;43164;50.908;18.092;2023-07-02T03:31:39;10.50;;;5.00;;
57331;SDS011;43164;50.908;18.092;2023-07-02T03:34:07;12.00;;;5.20;;
57331;SDS011;43164;50.908;18.092;2023-07-02T03:36:37;11.90;;;5.60;;
57331;SDS011;43164;50.908;18.092;2023-07-02T03:39:06;9.60;;;5.60;;
57331;SDS011;43164;50.908;18.092;2023-07-02T03:41:35;10.80;;;5.00;;
57331;SDS011;43164;50.908;18.092;2023-07-02T03:44:04;11.60;;;5.50;;
57331;SDS011;43164;50.908;18.092;2023-07-02T03:46:33;9.50;;;4.90;;
57331;SDS011;43164;50.908;18.092;2023-07-02T03:49:02;9.40;;;4.40;;
57331;SDS011;43164;50.908;18.092;2023-07-02T03:51:30;8.10;;;3.30;;
57331;SDS011;43164;50.908;18.092;2023-07-02T03:53:59;6.80;;;3.10;;
57331;SDS011;43164;50.908;18.092;2023-07-02T03:56:27;7.80;;;2.70;;
57331;SDS011;43164;50.908;18.092;2023-07-02T03:58:55;5.00;;;2.10;;
57331;SDS011;43164;50.908;18.092;2023-07-02T04:01:26;5.40;;;2.40;;
57331;SDS011;43164;50.908;18.092;2023-07-02T04:04:02;6.40;;;2.30;;
57331;SDS011;43164;50.908;18.092;2023-07-02T04:06:30;4.90;;;2.10;;
57331;SDS011;43164;50.908;18.092;2023-07-02T04:09:05;4.20;;;1.90;;
57331;SDS011;43164;50.908;18.092;2023-07-02T04:11:35;3.70;;;1.70;;
57331;SDS011;43164;50.908;18.092;2023-07-02T04:14:09;6.20;;;2.10;;
57331;SDS011;43164;50.908;18.092;2023-07-02T04:16:38;6.50;;;1.80;;
57331;SDS011;43164;50.908;18.092;2023-07-02T04:19:06;4.20;;;1.90;;
57331;SDS011;43164;50.908;18.092;2023-07-02T04:21:33;5.70;;;1.60;;
57331;SDS011;43164;50.908;18.092;2023-07-02T04:24:02;7.30;;;2.30;;
57331;SDS011;43164;50.908;18.092;2023-07-02T04:26:31;6.10;;;1.80;;
57331;SDS011;43164;50.908;18.092;2023-07-02T04:29:06;6.70;;;1.70;;
57331;SDS011;43164;50.908;18.092;2023-07-02T04:31:35;3.30;;;1.30;;
57331;SDS011;43164;50.908;18.092;2023-07-02T04:34:12;5.20;;;1.40;;
57331;SDS011;43164;50.908;18.092;2023-07-02T04:36:42;4.40;;;1.10;;
57331;SDS011;43164;50.908;18.092;2023-07-02T04:39:12;5.00;;;1.30;;
57331;SDS011;43164;50.908;18.092;2023-07-02T04:41:40;4.20;;;1.00;;
57331;SDS011;43164;50.908;18.092;2023-07-02T04:44:07;5.70;;;1.50;;
57331;SDS011;43164;50.908;18.092;2023-07-02T04:46:36;3.50;;;1.50;;
57331;SDS011;43164;50.908;18.092;2023-07-02T04:49:04;5.40;;;1.10;;
57331;SDS011;43164;50.908;18.092;2023-07-02T04:51:32;3.00;;;1.00;;
57331;SDS011;43164;50.908;18.092;2023-07-02T04:54:00;2.60;;;1.10;;
57331;SDS011;43164;50.908;18.092;2023-07-02T04:56:28;3.00;;;1.10;;
57331;SDS011;43164;50.908;18.092;2023-07-02T04:58:55;2.90;;;0.90;;
57331;SDS011;43164;50.908;18.092;2023-07-02T05:01:24;2.90;;;0.90;;
57331;SDS011;43164;50.908;18.092;2023-07-02T05:03:52;2.20;;;1.00;;
57331;SDS011;43164;50.908;18.092;2023-07-02T05:06:20;3.00;;;1.00;;
57331;SDS011;43164;50.908;18.092;2023-07-02T05:08:48;4.30;;;1.10;;
57331;SDS011;43164;50.908;18.092;2023-07-02T05:11:19;3.40;;;0.80;;
57331;SDS011;43164;50.908;18.092;2023-07-02T05:13:47;2.80;;;0.90;;
57331;SDS011;43164;50.908;18.092;2023-07-02T05:16:16;1.80;;;0.80;;
57331;SDS011;43164;50.908;18.092;2023-07-02T05:18:45;3.00;;;0.80;;
57331;SDS011;43164;50.908;18.092;2023-07-02T05:21:13;2.00;;;0.80;;
57331;SDS011;43164;50.908;18.092;2023-07-02T05:23:47;3.80;;;0.80;;
57331;SDS011;43164;50.908;18.092;2023-07-02T05:26:16;1.90;;;0.60;;
57331;SDS011;43164;50.908;18.092;2023-07-02T05:28:44;1.80;;;0.60;;
57331;SDS011;43164;50.908;18.092;2023-07-02T05:31:13;1.70;;;0.70;;
57331;SDS011;43164;50.908;18.092;2023-07-02T05:33:42;2.50;;;0.60;;
57331;SDS011;43164;50.908;18.092;2023-07-02T05:36:10;2.20;;;0.70;;
57331;SDS011;43164;50.908;18.092;2023-07-02T05:38:38;3.00;;;0.60;;
57331;SDS011;43164;50.908;18.092;2023-07-02T05:41:06;1.70;;;0.70;;
57331;SDS011;43164;50.908;18.092;2023-07-02T05:43:35;2.80;;;0.80;;
57331;SDS011;43164;50.908;18.092;2023-07-02T05:46:03;2.40;;;0.70;;
57331;SDS011;43164;50.908;18.092;2023-07-02T05:48:30;1.50;;;0.60;;
57331;SDS011;43164;50.908;18.092;2023-07-02T05:50:58;2.30;;;0.80;;
57331;SDS011;43164;50.908;18.092;2023-07-02T05:53:26;1.70;;;0.60;;
57331;SDS011;43164;50.908;18.092;2023-07-02T05:55:54;3.60;;;0.70;;
57331;SDS011;43164;50.908;18.092;2023-07-02T05:58:22;2.80;;;0.60;;
57331;SDS011;43164;50.908;18.092;2023-07-02T06:00:52;2.10;;;0.60;;
57331;SDS011;43164;50.908;18.092;2023-07-02T06:03:19;3.40;;;0.60;;
57331;SDS011;43164;50.908;18.092;2023-07-02T06:05:52;2.60;;;0.60;;
57331;SDS011;43164;50.908;18.092;2023-07-02T06:08:21;3.30;;;0.60;;
57331;SDS011;43164;50.908;18.092;2023-07-02T06:10:50;2.50;;;0.80;;
57331;SDS011;43164;50.908;18.092;2023-07-02T06:13:25;2.10;;;0.70;;
57331;SDS011;43164;50.908;18.092;2023-07-02T06:15:54;3.60;;;0.70;;
57331;SDS011;43164;50.908;18.092;2023-07-02T06:18:39;3.40;;;0.70;;
57331;SDS011;43164;50.908;18.092;2023-07-02T06:21:22;2.20;;;0.60;;
57331;SDS011;43164;50.908;18.092;2023-07-02T06:24:17;3.90;;;0.80;;
57331;SDS011;43164;50.908;18.092;2023-07-02T06:26:56;2.90;;;0.60;;
57331;SDS011;43164;50.908;18.092;2023-07-02T06:29:31;2.40;;;0.60;;
57331;SDS011;43164;50.908;18.092;2023-07-02T06:32:04;2.90;;;0.70;;
57331;SDS011;43164;50.908;18.092;2023-07-02T06:34:37;3.60;;;0.80;;
57331;SDS011;43164;50.908;18.092;2023-07-02T06:37:12;2.60;;;0.80;;
57331;SDS011;43164;50.908;18.092;2023-07-02T06:46:26;2.60;;;0.80;;
57331;SDS011;43164;50.908;18.092;2023-07-02T06:49:00;2.80;;;0.70;;
57331;SDS011;43164;50.908;18.092;2023-07-02T07:03:38;2.60;;;0.80;;
57331;SDS011;43164;50.908;18.092;2023-07-02T07:09:24;5.20;;;1.00;;
57331;SDS011;43164;50.908;18.092;2023-07-02T07:11:52;2.30;;;0.90;;
57331;SDS011;43164;50.908;18.092;2023-07-02T07:14:21;4.10;;;0.80;;
57331;SDS011;43164;50.908;18.092;2023-07-02T07:16:49;3.30;;;1.00;;
57331;SDS011;43164;50.908;18.092;2023-07-02T07:19:17;1.90;;;0.60;;
57331;SDS011;43164;50.908;18.092;2023-07-02T07:21:45;1.60;;;0.70;;
57331;SDS011;43164;50.908;18.092;2023-07-02T07:24:13;4.20;;;0.70;;
57331;SDS011;43164;50.908;18.092;2023-07-02T07:26:42;2.50;;;0.80;;
57331;SDS011;43164;50.908;18.092;2023-07-02T07:29:09;1.90;;;0.60;;
57331;SDS011;43164;50.908;18.092;2023-07-02T07:31:37;3.00;;;0.70;;
57331;SDS011;43164;50.908;18.092;2023-07-02T07:34:05;2.20;;;0.70;;
57331;SDS011;43164;50.908;18.092;2023-07-02T07:36:33;1.80;;;0.70;;
57331;SDS011;43164;50.908;18.092;2023-07-02T07:39:02;1.70;;;0.70;;
57331;SDS011;43164;50.908;18.092;2023-07-02T07:41:31;2.40;;;0.80;;
57331;SDS011;43164;50.908;18.092;2023-07-02T07:44:00;2.40;;;0.80;;
57331;SDS011;43164;50.908;18.092;2023-07-02T07:46:29;1.40;;;0.60;;
57331;SDS011;43164;50.908;18.092;2023-07-02T07:48:57;3.60;;;0.70;;
57331;SDS011;43164;50.908;18.092;2023-07-02T07:51:26;2.10;;;0.70;;
57331;SDS011;43164;50.908;18.092;2023-07-02T07:53:54;1.60;;;0.70;;
57331;SDS011;43164;50.908;18.092;2023-07-02T07:56:23;1.40;;;0.60;;
57331;SDS011;43164;50.908;18.092;2023-07-02T07:58:51;1.80;;;0.80;;
57331;SDS011;43164;50.908;18.092;2023-07-02T08:01:22;1.30;;;0.60;;
57331;SDS011;43164;50.908;18.092;2023-07-02T08:03:57;2.20;;;0.90;;
57331;SDS011;43164;50.908;18.092;2023-07-02T08:06:28;4.40;;;1.00;;
57331;SDS011;43164;50.908;18.092;2023-07-02T08:08:56;3.30;;;0.60;;
57331;SDS011;43164;50.908;18.092;2023-07-02T08:11:25;2.30;;;0.90;;
57331;SDS011;43164;50.908;18.092;2023-07-02T08:13:54;2.00;;;0.70;;
57331;SDS011;43164;50.908;18.092;2023-07-02T08:16:23;2.30;;;0.80;;
57331;SDS011;43164;50.908;18.092;2023-07-02T08:18:52;2.10;;;0.70;;
57331;SDS011;43164;50.908;18.092;2023-07-02T08:21:20;2.50;;;0.90;;
57331;SDS011;43164;50.908;18.092;2023-07-02T08:23:49;2.20;;;0.70;;
57331;SDS011;43164;50.908;18.092;2023-07-02T08:26:18;2.60;;;0.80;;
57331;SDS011;43164;50.908;18.092;2023-07-02T08:28:46;2.10;;;0.80;;
57331;SDS011;43164;50.908;18.092;2023-07-02T08:31:14;3.00;;;0.80;;
57331;SDS011;43164;50.908;18.092;2023-07-02T08:33:43;2.60;;;0.90;;
57331;SDS011;43164;50.908;18.092;2023-07-02T08:36:10;2.70;;;0.70;;
57331;SDS011;43164;50.908;18.092;2023-07-02T08:38:41;2.40;;;0.80;;
57331;SDS011;43164;50.908;18.092;2023-07-02T08:41:09;2.00;;;0.90;;
57331;SDS011;43164;50.908;18.092;2023-07-02T08:43:37;3.30;;;0.90;;
57331;SDS011;43164;50.908;18.092;2023-07-02T08:46:05;2.70;;;0.90;;
57331;SDS011;43164;50.908;18.092;2023-07-02T08:48:34;3.00;;;1.00;;
57331;SDS011;43164;50.908;18.092;2023-07-02T08:51:02;3.20;;;1.00;;
57331;SDS011;43164;50.908;18.092;2023-07-02T08:53:31;2.80;;;0.90;;
57331;SDS011;43164;50.908;18.092;2023-07-02T08:56:00;1.80;;;1.00;;
57331;SDS011;43164;50.908;18.092;2023-07-02T08:58:33;6.10;;;0.90;;
57331;SDS011;43164;50.908;18.092;2023-07-02T09:01:10;2.10;;;1.00;;
57331;SDS011;43164;50.908;18.092;2023-07-02T09:03:40;3.20;;;1.00;;
57331;SDS011;43164;50.908;18.092;2023-07-02T09:06:10;2.70;;;1.00;;
57331;SDS011;43164;50.908;18.092;2023-07-02T09:08:39;3.10;;;0.90;;
57331;SDS011;43164;50.908;18.092;2023-07-02T09:11:11;1.90;;;0.90;;
57331;SDS011;43164;50.908;18.092;2023-07-02T09:16:21;2.50;;;0.90;;
57331;SDS011;43164;50.908;18.092;2023-07-02T09:18:59;5.00;;;1.00;;
57331;SDS011;43164;50.908;18.092;2023-07-02T09:21:44;3.60;;;1.00;;
57331;SDS011;43164;50.908;18.092;2023-07-02T09:24:14;3.00;;;0.80;;
57331;SDS011;43164;50.908;18.092;2023-07-02T09:26:50;2.00;;;0.80;;
57331;SDS011;43164;50.908;18.092;2023-07-02T09:29:23;3.00;;;0.80;;
57331;SDS011;43164;50.908;18.092;2023-07-02T09:31:59;1.90;;;0.50;;
57331;SDS011;43164;50.908;18.092;2023-07-02T09:34:32;1.60;;;0.60;;
57331;SDS011;43164;50.908;18.092;2023-07-02T09:37:02;2.10;;;0.60;;
57331;SDS011;43164;50.908;18.092;2023-07-02T09:39:33;1.60;;;0.40;;
57331;SDS011;43164;50.908;18.092;2023-07-02T09:42:05;1.90;;;0.60;;
57331;SDS011;43164;50.908;18.092;2023-07-02T09:44:38;1.70;;;0.50;;
57331;SDS011;43164;50.908;18.092;2023-07-02T09:47:08;1.60;;;0.50;;
57331;SDS011;43164;50.908;18.092;2023-07-02T09:49:39;1.00;;;0.40;;
57331;SDS011;43164;50.908;18.092;2023-07-02T09:52:10;1.90;;;0.50;;
57331;SDS011;43164;50.908;18.092;2023-07-02T09:54:39;1.10;;;0.50;;
57331;SDS011;43164;50.908;18.092;2023-07-02T09:57:09;1.30;;;0.50;;
57331;SDS011;43164;50.908;18.092;2023-07-02T09:59:38;1.30;;;0.60;;
57331;SDS011;43164;50.908;18.092;2023-07-02T10:02:15;4.50;;;0.90;;
57331;SDS011;43164;50.908;18.092;2023-07-02T10:04:44;2.30;;;0.80;;
57331;SDS011;43164;50.908;18.092;2023-07-02T10:07:25;5.00;;;0.70;;
57331;SDS011;43164;50.908;18.092;2023-07-02T10:09:56;5.10;;;0.80;;
57331;SDS011;43164;50.908;18.092;2023-07-02T10:12:26;2.60;;;0.70;;
57331;SDS011;43164;50.908;18.092;2023-07-02T10:14:58;5.40;;;0.90;;
57331;SDS011;43164;50.908;18.092;2023-07-02T10:17:53;2.40;;;0.90;;
57331;SDS011;43164;50.908;18.092;2023-07-02T10:20:36;2.90;;;1.00;;
57331;SDS011;43164;50.908;18.092;2023-07-02T10:23:14;3.20;;;0.90;;
57331;SDS011;43164;50.908;18.092;2023-07-02T10:25:47;1.90;;;0.70;;
57331;SDS011;43164;50.908;18.092;2023-07-02T10:28:31;2.90;;;0.80;;
57331;SDS011;43164;50.908;18.092;2023-07-02T10:31:04;4.30;;;0.80;;
57331;SDS011;43164;50.908;18.092;2023-07-02T10:33:53;2.70;;;0.80;;
57331;SDS011;43164;50.908;18.092;2023-07-02T10:36:25;2.70;;;0.90;;
57331;SDS011;43164;50.908;18.092;2023-07-02T10:39:03;2.30;;;1.00;;
57331;SDS011;43164;50.908;18.092;2023-07-02T10:41:33;3.80;;;1.00;;
57331;SDS011;43164;50.908;18.092;2023-07-02T10:44:10;2.90;;;0.90;;
57331;SDS011;43164;50.908;18.092;2023-07-02T10:46:50;3.70;;;0.90;;
57331;SDS011;43164;50.908;18.092;2023-07-02T10:49:41;4.20;;;1.30;;
57331;SDS011;43164;50.908;18.092;2023-07-02T10:52:14;2.90;;;1.00;;
57331;SDS011;43164;50.908;18.092;2023-07-02T10:54:49;3.90;;;1.20;;
57331;SDS011;43164;50.908;18.092;2023-07-02T10:57:19;2.80;;;1.00;;
57331;SDS011;43164;50.908;18.092;2023-07-02T10:59:53;2.40;;;1.10;;
57331;SDS011;43164;50.908;18.092;2023-07-02T11:02:36;5.40;;;1.30;;
57331;SDS011;43164;50.908;18.092;2023-07-02T11:05:11;2.70;;;1.30;;
57331;SDS011;43164;50.908;18.092;2023-07-02T11:07:42;3.70;;;1.40;;
57331;SDS011;43164;50.908;18.092;2023-07-02T11:10:19;3.20;;;1.60;;
57331;SDS011;43164;50.908;18.092;2023-07-02T11:12:47;2.70;;;1.20;;
57331;SDS011;43164;50.908;18.092;2023-07-02T11:15:23;2.80;;;1.30;;
57331;SDS011;43164;50.908;18.092;2023-07-02T11:17:55;3.30;;;1.20;;
57331;SDS011;43164;50.908;18.092;2023-07-02T11:20:33;3.00;;;1.40;;
57331;SDS011;43164;50.908;18.092;2023-07-02T11:23:04;3.20;;;1.40;;
57331;SDS011;43164;50.908;18.092;2023-07-02T11:25:57;3.00;;;1.60;;
57331;SDS011;43164;50.908;18.092;2023-07-02T11:28:31;3.70;;;1.30;;
57331;SDS011;43164;50.908;18.092;2023-07-02T11:31:06;2.70;;;1.30;;
57331;SDS011;43164;50.908;18.092;2023-07-02T11:33:39;2.90;;;1.20;;
57331;SDS011;43164;50.908;18.092;2023-07-02T11:36:24;4.70;;;1.10;;
57331;SDS011;43164;50.908;18.092;2023-07-02T11:38:54;3.10;;;1.00;;
57331;SDS011;43164;50.908;18.092;2023-07-02T11:41:23;4.50;;;1.30;;
57331;SDS011;43164;50.908;18.092;2023-07-02T11:43:51;2.50;;;1.00;;
57331;SDS011;43164;50.908;18.092;2023-07-02T11:46:23;3.10;;;1.10;;
57331;SDS011;43164;50.908;18.092;2023-07-02T11:48:52;2.10;;;1.00;;
57331;SDS011;43164;50.908;18.092;2023-07-02T11:51:31;2.70;;;1.30;;
57331;SDS011;43164;50.908;18.092;2023-07-02T11:54:05;2.30;;;1.00;;
57331;SDS011;43164;50.908;18.092;2023-07-02T11:56:39;2.40;;;0.90;;
57331;SDS011;43164;50.908;18.092;2023-07-02T11:59:09;4.50;;;1.20;;
57331;SDS011;43164;50.908;18.092;2023-07-02T12:01:47;2.20;;;0.90;;
57331;SDS011;43164;50.908;18.092;2023-07-02T12:04:17;2.80;;;1.00;;
57331;SDS011;43164;50.908;18.092;2023-07-02T12:06:51;2.10;;;1.10;;
57331;SDS011;43164;50.908;18.092;2023-07-02T12:09:21;2.20;;;1.10;;
57331;SDS011;43164;50.908;18.092;2023-07-02T12:11:54;3.50;;;1.20;;
57331;SDS011;43164;50.908;18.092;2023-07-02T12:14:24;3.00;;;0.90;;
57331;SDS011;43164;50.908;18.092;2023-07-02T12:16:54;4.60;;;0.90;;
57331;SDS011;43164;50.908;18.092;2023-07-02T12:19:31;3.20;;;0.90;;
57331;SDS011;43164;50.908;18.092;2023-07-02T12:22:03;2.00;;;0.70;;
57331;SDS011;43164;50.908;18.092;2023-07-02T12:24:37;2.90;;;0.80;;
57331;SDS011;43164;50.908;18.092;2023-07-02T12:27:06;2.60;;;1.00;;
57331;SDS011;43164;50.908;18.092;2023-07-02T12:29:35;2.10;;;0.80;;
57331;SDS011;43164;50.908;18.092;2023-07-02T12:32:30;2.90;;;1.00;;
57331;SDS011;43164;50.908;18.092;2023-07-02T12:35:23;1.80;;;0.80;;
57331;SDS011;43164;50.908;18.092;2023-07-02T12:38:01;2.50;;;0.70;;
57331;SDS011;43164;50.908;18.092;2023-07-02T12:40:39;1.80;;;0.80;;
57331;SDS011;43164;50.908;18.092;2023-07-02T12:43:08;3.70;;;0.90;;
57331;SDS011;43164;50.908;18.092;2023-07-02T12:45:49;2.00;;;0.90;;
57331;SDS011;43164;50.908;18.092;2023-07-02T12:48:21;3.30;;;0.80;;
57331;SDS011;43164;50.908;18.092;2023-07-02T12:50:56;1.80;;;0.70;;
57331;SDS011;43164;50.908;18.092;2023-07-02T12:53:44;2.80;;;0.80;;
57331;SDS011;43164;50.908;18.092;2023-07-02T12:56:14;3.40;;;0.80;;
57331;SDS011;43164;50.908;18.092;2023-07-02T12:58:49;4.60;;;0.80;;
57331;SDS011;43164;50.908;18.092;2023-07-02T13:01:18;4.80;;;0.90;;
57331;SDS011;43164;50.908;18.092;2023-07-02T13:03:53;1.90;;;0.80;;
57331;SDS011;43164;50.908;18.092;2023-07-02T13:06:21;2.20;;;0.90;;
57331;SDS011;43164;50.908;18.092;2023-07-02T13:08:58;3.00;;;0.80;;
57331;SDS011;43164;50.908;18.092;2023-07-02T13:11:30;3.10;;;0.80;;
57331;SDS011;43164;50.908;18.092;2023-07-02T13:14:23;2.70;;;0.80;;
57331;SDS011;43164;50.908;18.092;2023-07-02T13:16:54;4.50;;;0.90;;
57331;SDS011;43164;50.908;18.092;2023-07-02T13:22:06;1.90;;;0.70;;
57331;SDS011;43164;50.908;18.092;2023-07-02T13:24:53;3.20;;;1.30;;
57331;SDS011;43164;50.908;18.092;2023-07-02T13:27:27;4.50;;;0.80;;
57331;SDS011;43164;50.908;18.092;2023-07-02T13:30:10;2.40;;;0.90;;
57331;SDS011;43164;50.908;18.092;2023-07-02T13:32:40;3.60;;;1.00;;
57331;SDS011;43164;50.908;18.092;2023-07-02T13:35:18;2.20;;;0.90;;
57331;SDS011;43164;50.908;18.092;2023-07-02T13:41:27;2.30;;;0.80;;
57331;SDS011;43164;50.908;18.092;2023-07-02T13:43:57;2.40;;;1.00;;
57331;SDS011;43164;50.908;18.092;2023-07-02T13:46:26;3.80;;;0.80;;
57331;SDS011;43164;50.908;18.092;2023-07-02T13:48:54;2.60;;;0.80;;
57331;SDS011;43164;50.908;18.092;2023-07-02T13:51:23;3.10;;;0.90;;
57331;SDS011;43164;50.908;18.092;2023-07-02T13:53:58;2.70;;;0.70;;
57331;SDS011;43164;50.908;18.092;2023-07-02T13:56:33;2.10;;;0.70;;
57331;SDS011;43164;50.908;18.092;2023-07-02T13:59:11;1.60;;;0.80;;
57331;SDS011;43164;50.908;18.092;2023-07-02T14:01:49;2.60;;;0.80;;
57331;SDS011;43164;50.908;18.092;2023-07-02T14:04:18;3.00;;;0.90;;
57331;SDS011;43164;50.908;18.092;2023-07-02T14:06:47;3.70;;;0.90;;
57331;SDS011;43164;50.908;18.092;2023-07-02T14:09:16;3.50;;;0.80;;
57331;SDS011;43164;50.908;18.092;2023-07-02T14:11:49;2.00;;;0.80;;
57331;SDS011;43164;50.908;18.092;2023-07-02T14:14:26;3.50;;;1.00;;
57331;SDS011;43164;50.908;18.092;2023-07-02T14:17:08;3.30;;;1.30;;
57331;SDS011;43164;50.908;18.092;2023-07-02T14:19:40;3.50;;;0.90;;
57331;SDS011;43164;50.908;18.092;2023-07-02T14:22:16;1.90;;;0.80;;
57331;SDS011;43164;50.908;18.092;2023-07-02T14:24:46;2.40;;;0.70;;
57331;SDS011;43164;50.908;18.092;2023-07-02T14:29:47;2.60;;;1.10;;
57331;SDS011;43164;50.908;18.092;2023-07-02T14:32:17;3.00;;;0.70;;
57331;SDS011;43164;50.908;18.092;2023-07-02T14:34:45;1.50;;;0.70;;
57331;SDS011;43164;50.908;18.092;2023-07-02T14:37:13;1.60;;;0.70;;
57331;SDS011;43164;50.908;18.092;2023-07-02T14:39:41;4.70;;;0.70;;
57331;SDS011;43164;50.908;18.092;2023-07-02T14:42:12;3.90;;;0.80;;
57331;SDS011;43164;50.908;18.092;2023-07-02T14:44:41;2.10;;;0.70;;
57331;SDS011;43164;50.908;18.092;2023-07-02T14:47:19;1.00;;;0.50;;
57331;SDS011;43164;50.908;18.092;2023-07-02T14:49:48;2.90;;;0.80;;
57331;SDS011;43164;50.908;18.092;2023-07-02T14:52:20;2.20;;;0.90;;
57331;SDS011;43164;50.908;18.092;2023-07-02T14:55:00;2.00;;;0.70;;
57331;SDS011;43164;50.908;18.092;2023-07-02T14:57:41;2.30;;;0.60;;
57331;SDS011;43164;50.908;18.092;2023-07-02T15:00:10;3.60;;;0.70;;
57331;SDS011;43164;50.908;18.092;2023-07-02T15:02:39;1.70;;;0.70;;
57331;SDS011;43164;50.908;18.092;2023-07-02T15:05:08;5.30;;;0.80;;
57331;SDS011;43164;50.908;18.092;2023-07-02T15:07:37;5.20;;;0.70;;
57331;SDS011;43164;50.908;18.092;2023-07-02T15:10:05;3.00;;;0.70;;
57331;SDS011;43164;50.908;18.092;2023-07-02T15:12:33;3.40;;;0.70;;
57331;SDS011;43164;50.908;18.092;2023-07-02T15:15:02;1.50;;;0.80;;
57331;SDS011;43164;50.908;18.092;2023-07-02T15:17:31;2.50;;;0.80;;
57331;SDS011;43164;50.908;18.092;2023-07-02T15:19:59;3.00;;;0.80;;
57331;SDS011;43164;50.908;18.092;2023-07-02T15:22:34;17.40;;;0.80;;
57331;SDS011;43164;50.908;18.092;2023-07-02T15:25:02;3.50;;;0.70;;
57331;SDS011;43164;50.908;18.092;2023-07-02T15:27:30;3.50;;;0.70;;